createdAt,value
2023-05-13T00:00:24.131Z,90.23
2023-05-13T00:02:54.510Z,89.90
2023-05-13T00:05:24.818Z,89.85
2023-05-13T00:07:54.958Z,89.92
2023-05-13T00:10:25.458Z,89.32
2023-05-13T00:12:55.580Z,89.70
2023-05-13T00:15:30.876Z,89.95
2023-05-13T00:18:01.133Z,90.20
2023-05-13T00:20:31.553Z,90.14
2023-05-13T00:23:04.696Z,89.99
2023-05-13T00:25:34.971Z,89.49
2023-05-13T00:28:05.171Z,89.84
2023-05-13T00:30:39.542Z,90.04
2023-05-13T00:33:09.811Z,90.15
2023-05-13T00:35:40.005Z,90.34
2023-05-13T00:38:10.252Z,90.48
2023-05-13T00:40:43.377Z,90.76
2023-05-13T00:43:13.843Z,90.70
2023-05-13T00:45:49.034Z,90.95
2023-05-13T00:48:19.413Z,90.88
2023-05-13T00:50:49.917Z,91.04
2023-05-13T00:53:20.761Z,91.24
2023-05-13T00:55:51.106Z,90.82
2023-05-13T00:58:21.834Z,91.00
2023-05-13T01:01:00.914Z,91.12
2023-05-13T01:03:40.854Z,91.15
2023-05-13T01:06:15.846Z,91.12
2023-05-13T01:08:57.246Z,91.50
2023-05-13T01:11:31.042Z,91.28
2023-05-13T01:14:06.864Z,91.29
2023-05-13T01:16:45.265Z,91.43
2023-05-13T01:19:28.629Z,91.40
2023-05-13T01:22:01.517Z,91.08
2023-05-13T01:24:31.749Z,90.81
2023-05-13T01:27:03.527Z,90.72
2023-05-13T01:29:34.491Z,90.47
2023-05-13T01:32:06.519Z,90.46
2023-05-13T01:34:38.382Z,90.78
2023-05-13T01:37:11.513Z,90.40
2023-05-13T01:39:43.697Z,90.83
2023-05-13T01:42:17.550Z,91.13
2023-05-13T01:44:47.864Z,90.93
2023-05-13T01:47:18.712Z,91.21
2023-05-13T01:49:49.122Z,90.92
2023-05-13T01:52:21.982Z,91.06
2023-05-13T01:54:52.516Z,90.95
2023-05-13T01:57:23.837Z,90.78
2023-05-13T01:59:54.199Z,90.55
2023-05-13T02:02:24.581Z,90.11
2023-05-13T02:04:55.206Z,90.17
2023-05-13T02:07:30.501Z,89.54
2023-05-13T02:10:00.996Z,89.82
2023-05-13T02:12:31.392Z,89.80
2023-05-13T02:15:01.717Z,89.78
2023-05-13T02:17:37.123Z,89.96
2023-05-13T02:20:09.147Z,89.94
2023-05-13T02:22:42.198Z,89.91
2023-05-13T02:25:13.219Z,90.19
2023-05-13T02:27:43.087Z,90.45
2023-05-13T02:30:16.650Z,90.44
2023-05-13T02:32:47.576Z,90.55
2023-05-13T02:35:18.230Z,90.33
2023-05-13T02:37:51.704Z,90.03
2023-05-13T02:40:22.371Z,89.85
2023-05-13T02:42:54.089Z,90.00
2023-05-13T02:45:35.240Z,89.92
2023-05-13T02:48:05.464Z,90.22
2023-05-13T02:50:39.676Z,90.38
2023-05-13T02:53:12.575Z,90.33
2023-05-13T02:55:48.553Z,90.74
2023-05-13T02:58:18.769Z,91.20
2023-05-13T03:00:54.094Z,91.57
2023-05-13T03:03:27.258Z,91.76
2023-05-13T03:05:57.619Z,91.48
2023-05-13T03:08:30.473Z,91.77
2023-05-13T03:11:03.956Z,91.48
2023-05-13T03:13:35.921Z,91.83
2023-05-13T03:16:06.393Z,91.74
2023-05-13T03:18:38.009Z,91.29
2023-05-13T03:21:08.291Z,91.27
2023-05-13T03:23:41.291Z,91.68
2023-05-13T03:26:11.910Z,91.63
2023-05-13T03:28:43.149Z,91.32
2023-05-13T03:31:13.680Z,91.45
2023-05-13T03:33:44.018Z,91.11
2023-05-13T03:36:15.244Z,91.19
2023-05-13T03:38:48.138Z,91.20
2023-05-13T03:41:19.764Z,91.17
2023-05-13T03:43:50.858Z,91.19
2023-05-13T03:46:22.068Z,91.00
2023-05-13T03:48:52.805Z,90.51
2023-05-13T03:51:23.422Z,90.99
2023-05-13T03:54:00.371Z,90.56
2023-05-13T03:56:30.587Z,90.17
2023-05-13T03:59:00.858Z,90.26
2023-05-13T04:01:31.067Z,90.26
2023-05-13T04:04:01.353Z,90.22
2023-05-13T04:06:35.334Z,89.84
2023-05-13T04:09:09.164Z,89.41
2023-05-13T04:11:39.346Z,89.47
2023-05-13T04:14:09.489Z,89.38
2023-05-13T04:16:40.043Z,89.38
2023-05-13T04:19:10.332Z,89.20
2023-05-13T04:21:41.584Z,89.02
2023-05-13T04:24:15.721Z,88.90
2023-05-13T04:26:46.009Z,88.97
2023-05-13T04:29:18.287Z,88.58
2023-05-13T04:31:49.195Z,88.07
2023-05-13T04:34:22.915Z,88.13
2023-05-13T04:36:53.115Z,88.24
2023-05-13T04:39:25.974Z,88.41
2023-05-13T04:41:56.152Z,88.14
2023-05-13T04:44:26.526Z,88.31
2023-05-13T04:46:56.711Z,88.43
2023-05-13T04:49:30.019Z,88.59
2023-05-13T04:52:00.738Z,88.57
2023-05-13T04:54:36.065Z,88.39
2023-05-13T04:57:06.638Z,87.87
2023-05-13T04:59:37.156Z,88.17
2023-05-13T05:02:10.933Z,87.88
2023-05-13T05:04:42.016Z,87.51
2023-05-13T05:07:16.746Z,87.20
2023-05-13T05:09:52.708Z,86.19
2023-05-13T05:12:24.834Z,86.31
2023-05-13T05:14:55.411Z,86.61
2023-05-13T05:17:28.093Z,86.33
2023-05-13T05:19:58.892Z,86.05
2023-05-13T05:22:29.804Z,86.43
2023-05-13T05:25:03.840Z,86.38
2023-05-13T05:27:34.011Z,86.01
2023-05-13T05:30:04.420Z,85.84
2023-05-13T05:32:37.002Z,85.26
2023-05-13T05:35:09.679Z,85.07
2023-05-13T05:37:40.274Z,84.30
2023-05-13T05:40:14.874Z,84.96
2023-05-13T05:42:45.266Z,85.30
2023-05-13T05:45:15.526Z,84.90
2023-05-13T05:47:46.195Z,84.30
2023-05-13T05:50:19.924Z,82.57
2023-05-13T05:52:50.760Z,81.77
2023-05-13T05:55:24.274Z,80.65
2023-05-13T05:57:56.112Z,80.32
2023-05-13T06:00:29.630Z,80.77
2023-05-13T06:03:02.074Z,81.21
2023-05-13T06:05:32.651Z,80.95
2023-05-13T06:08:03.023Z,79.56
2023-05-13T06:10:36.665Z,77.68
2023-05-13T06:13:07.224Z,78.24
2023-05-13T06:15:38.298Z,78.92
2023-05-13T06:18:09.447Z,79.43
2023-05-13T06:20:39.867Z,79.00
2023-05-13T06:23:10.768Z,79.47
2023-05-13T06:25:43.871Z,79.92
2023-05-13T06:28:16.782Z,79.90
2023-05-13T06:30:51.012Z,79.14
2023-05-13T06:33:21.590Z,79.49
2023-05-13T06:35:51.874Z,79.57
2023-05-13T06:38:24.832Z,78.78
2023-05-13T06:41:02.724Z,78.79
2023-05-13T06:43:36.850Z,78.18
2023-05-13T06:46:23.713Z,78.68
2023-05-13T06:48:57.347Z,78.39
2023-05-13T06:51:33.116Z,77.89
2023-05-13T06:54:03.357Z,76.32
2023-05-13T06:56:37.379Z,77.92
2023-05-13T06:59:11.034Z,77.28
2023-05-13T07:01:43.993Z,75.13
2023-05-13T07:04:14.387Z,75.08
2023-05-13T07:06:44.651Z,75.67
2023-05-13T07:09:15.259Z,73.99
2023-05-13T07:11:48.660Z,73.40
2023-05-13T07:14:18.810Z,74.87
2023-05-13T07:16:49.159Z,75.10
2023-05-13T07:19:19.580Z,74.61
2023-05-13T07:21:50.623Z,74.68
2023-05-13T07:24:20.843Z,74.12
2023-05-13T07:26:53.837Z,72.82
2023-05-13T07:29:25.916Z,71.78
2023-05-13T07:32:00.202Z,72.79
2023-05-13T07:34:31.561Z,70.99
2023-05-13T07:37:01.821Z,71.24
2023-05-13T07:39:32.618Z,70.72
2023-05-13T07:42:05.656Z,69.77
2023-05-13T07:44:35.782Z,70.11
2023-05-13T07:47:08.237Z,70.25
2023-05-13T07:49:38.709Z,70.80
2023-05-13T07:52:09.460Z,69.67
2023-05-13T07:54:39.950Z,70.01
2023-05-13T07:57:14.241Z,68.27
2023-05-13T07:59:45.869Z,66.97
2023-05-13T08:02:16.302Z,68.80
2023-05-13T08:04:49.922Z,67.81
2023-05-13T08:07:20.509Z,67.17
2023-05-13T08:09:50.770Z,66.04
2023-05-13T08:12:23.936Z,66.42
2023-05-13T08:14:56.638Z,67.55
2023-05-13T08:17:27.570Z,66.49
2023-05-13T08:19:58.971Z,65.88
2023-05-13T08:22:35.376Z,66.54
2023-05-13T08:25:06.281Z,66.07
2023-05-13T08:27:41.453Z,64.91
2023-05-13T08:30:18.384Z,65.42
2023-05-13T08:32:49.438Z,65.91
2023-05-13T08:35:20.081Z,65.20
2023-05-13T08:37:50.566Z,64.95
2023-05-13T08:40:21.515Z,66.61
2023-05-13T08:42:59.078Z,64.70
2023-05-13T08:45:32.530Z,64.62
2023-05-13T08:48:04.901Z,63.26
2023-05-13T08:50:35.715Z,61.34
2023-05-13T08:53:06.086Z,61.23
2023-05-13T08:55:38.516Z,62.68
2023-05-13T08:58:12.265Z,62.05
2023-05-13T09:00:44.106Z,61.97
2023-05-13T09:03:15.266Z,62.18
2023-05-13T09:05:49.306Z,59.76
2023-05-13T09:08:19.688Z,61.31
2023-05-13T09:10:50.356Z,61.29
2023-05-13T09:13:23.228Z,60.81
2023-05-13T09:15:54.445Z,59.08
2023-05-13T09:18:25.261Z,59.21
2023-05-13T09:20:55.997Z,58.39
2023-05-13T09:23:27.363Z,58.30
2023-05-13T09:25:57.600Z,58.59
2023-05-13T09:28:30.401Z,56.84
2023-05-13T09:31:00.585Z,58.76
2023-05-13T09:33:36.201Z,58.35
2023-05-13T09:36:08.640Z,54.35
2023-05-13T09:38:39.674Z,56.68
2023-05-13T09:41:10.104Z,58.00
2023-05-13T09:43:43.233Z,58.04
2023-05-13T09:46:16.244Z,57.65
2023-05-13T09:48:47.599Z,58.25
2023-05-13T09:51:18.914Z,56.86
2023-05-13T09:53:50.848Z,57.17
2023-05-13T09:56:25.150Z,55.49
2023-05-13T09:58:58.969Z,54.81
2023-05-13T10:01:31.123Z,54.50
2023-05-13T10:04:03.330Z,53.61
2023-05-13T10:06:34.294Z,55.42
2023-05-13T10:09:05.986Z,55.14
2023-05-13T10:11:39.190Z,54.50
2023-05-13T10:14:12.378Z,52.63
2023-05-13T10:16:44.370Z,51.48
2023-05-13T10:19:18.224Z,48.50
2023-05-13T10:21:50.853Z,51.49
2023-05-13T10:24:22.037Z,50.70
2023-05-13T10:26:54.376Z,52.17
2023-05-13T10:29:31.531Z,51.66
2023-05-13T10:32:02.839Z,51.38
2023-05-13T10:34:35.655Z,51.59
2023-05-13T10:37:22.756Z,51.38
2023-05-13T10:40:20.653Z,51.54
2023-05-13T10:42:59.515Z,50.44
2023-05-13T10:45:36.314Z,52.93
2023-05-13T10:48:09.566Z,51.73
2023-05-13T10:50:41.096Z,52.99
2023-05-13T10:53:13.329Z,53.22
2023-05-13T10:55:47.393Z,53.29
2023-05-13T10:58:22.789Z,51.61
2023-05-13T11:00:55.924Z,49.92
2023-05-13T11:03:32.957Z,51.53
2023-05-13T11:06:17.202Z,51.62
2023-05-13T11:08:49.244Z,50.81
2023-05-13T11:11:35.849Z,50.67
2023-05-13T11:14:11.736Z,50.26
2023-05-13T11:16:49.157Z,50.35
2023-05-13T11:19:27.164Z,48.90
2023-05-13T11:21:59.045Z,49.13
2023-05-13T11:24:30.070Z,49.40
2023-05-13T11:27:02.349Z,48.75
2023-05-13T11:29:34.579Z,48.89
2023-05-13T11:32:10.566Z,47.66
2023-05-13T11:34:41.753Z,47.72
2023-05-13T11:37:13.387Z,46.67
2023-05-13T11:39:44.213Z,46.70
2023-05-13T11:42:14.588Z,46.07
2023-05-13T11:44:49.837Z,46.57
2023-05-13T11:47:28.977Z,45.25
2023-05-13T11:50:00.020Z,45.00
2023-05-13T11:52:31.158Z,46.35
2023-05-13T11:55:01.363Z,45.46
2023-05-13T11:57:33.214Z,44.70
2023-05-13T12:00:05.090Z,44.10
2023-05-13T12:02:44.410Z,44.92
2023-05-13T12:05:15.708Z,45.05
2023-05-13T12:07:46.556Z,43.80
2023-05-13T12:10:16.362Z,46.47
2023-05-13T12:12:48.130Z,45.38
2023-05-13T12:15:21.040Z,46.46
2023-05-13T12:17:55.188Z,45.71
2023-05-13T12:20:28.390Z,47.48
2023-05-13T12:23:04.159Z,47.01
2023-05-13T12:25:47.082Z,46.40
2023-05-13T12:28:21.881Z,46.76
2023-05-13T12:30:56.756Z,46.08
2023-05-13T12:33:31.780Z,44.98
2023-05-13T12:36:20.726Z,44.69
2023-05-13T12:39:00.162Z,45.30
2023-05-13T12:41:35.327Z,47.55
2023-05-13T12:44:07.152Z,46.25
2023-05-13T12:46:40.449Z,45.77
2023-05-13T12:49:15.189Z,44.54
2023-05-13T12:51:46.446Z,43.72
2023-05-13T12:54:16.928Z,43.57
2023-05-13T12:56:48.663Z,42.98
2023-05-13T12:59:21.988Z,41.55
2023-05-13T13:01:52.450Z,40.85
2023-05-13T13:04:25.232Z,40.53
2023-05-13T13:06:55.500Z,41.08
2023-05-13T13:09:25.746Z,40.16
2023-05-13T13:11:58.760Z,40.51
2023-05-13T13:14:34.927Z,41.46
2023-05-13T13:17:05.358Z,40.54
2023-05-13T13:19:38.160Z,39.88
2023-05-13T13:22:11.245Z,39.82
2023-05-13T13:24:41.390Z,39.54
2023-05-13T13:27:11.660Z,39.34
2023-05-13T13:29:41.916Z,40.61
2023-05-13T13:32:12.164Z,40.61
2023-05-13T13:34:44.938Z,40.71
2023-05-13T13:37:17.479Z,41.27
2023-05-13T13:39:49.237Z,40.21
2023-05-13T13:42:19.421Z,39.80
2023-05-13T13:44:49.585Z,40.57
2023-05-13T13:47:19.869Z,40.28
2023-05-13T13:49:53.025Z,41.28
2023-05-13T13:52:24.015Z,41.93
2023-05-13T13:54:55.517Z,41.48
2023-05-13T13:57:25.716Z,42.20
2023-05-13T13:59:55.984Z,41.28
2023-05-13T14:02:26.218Z,41.74
2023-05-13T14:04:59.066Z,41.25
2023-05-13T14:07:31.580Z,41.69
2023-05-13T14:10:01.882Z,41.14
2023-05-13T14:12:32.050Z,42.34
2023-05-13T14:15:02.500Z,41.48
2023-05-13T14:17:32.775Z,42.21
2023-05-13T14:20:05.814Z,42.57
2023-05-13T14:22:35.975Z,42.75
2023-05-13T14:25:06.345Z,42.75
2023-05-13T14:27:36.665Z,42.44
2023-05-13T14:30:07.580Z,51.56
2023-05-13T14:32:37.806Z,56.47
2023-05-13T14:35:12.580Z,60.59
2023-05-13T14:37:45.207Z,65.38
2023-05-13T14:40:15.639Z,68.61
2023-05-13T14:42:46.492Z,71.52
2023-05-13T14:45:18.360Z,72.48
2023-05-13T14:47:50.457Z,74.15
2023-05-13T14:50:26.168Z,74.88
2023-05-13T14:52:56.624Z,76.25
2023-05-13T14:55:27.046Z,77.93
2023-05-13T14:57:57.487Z,78.37
2023-05-13T15:00:27.693Z,77.10
2023-05-13T15:02:58.117Z,77.46
2023-05-13T15:05:33.331Z,77.43
2023-05-13T15:08:03.681Z,77.70
2023-05-13T15:10:34.051Z,78.26
2023-05-13T15:13:04.373Z,78.19
2023-05-13T15:15:35.510Z,77.70
2023-05-13T15:18:05.776Z,78.27
2023-05-13T15:20:42.134Z,79.59
2023-05-13T15:23:12.408Z,79.86
2023-05-13T15:25:42.956Z,80.62
2023-05-13T15:28:13.179Z,81.37
2023-05-13T15:30:43.438Z,81.27
2023-05-13T15:33:13.781Z,81.47
2023-05-13T15:35:46.645Z,82.91
2023-05-13T15:38:19.308Z,84.05
2023-05-13T15:40:50.833Z,83.05
2023-05-13T15:43:21.464Z,82.98
2023-05-13T15:45:53.857Z,82.56
2023-05-13T15:48:26.553Z,82.99
2023-05-13T15:50:59.665Z,83.82
2023-05-13T15:53:29.965Z,83.77
2023-05-13T15:56:00.498Z,82.38
2023-05-13T15:58:30.727Z,82.77
2023-05-13T16:01:01.330Z,80.53
2023-05-13T16:03:35.039Z,81.94
2023-05-13T16:06:09.235Z,83.02
2023-05-13T16:08:39.738Z,83.20
2023-05-13T16:11:10.018Z,83.46
2023-05-13T16:13:40.240Z,82.48
2023-05-13T16:16:13.058Z,82.80
2023-05-13T16:18:43.582Z,83.23
2023-05-13T16:21:17.338Z,82.88
2023-05-13T16:23:47.696Z,83.06
2023-05-13T16:26:18.296Z,83.17
2023-05-13T16:28:48.629Z,83.18
2023-05-13T16:31:21.282Z,82.39
2023-05-13T16:33:51.525Z,82.26
2023-05-13T16:36:24.801Z,82.61
2023-05-13T16:38:55.053Z,83.60
2023-05-13T16:41:25.670Z,82.75
2023-05-13T16:43:56.312Z,82.07
2023-05-13T16:46:26.549Z,81.24
2023-05-13T16:49:00.038Z,81.25
2023-05-13T16:51:33.199Z,80.72
2023-05-13T16:54:03.403Z,80.29
2023-05-13T16:56:33.868Z,79.89
2023-05-13T16:59:04.113Z,79.59
2023-05-13T17:01:34.407Z,80.01
2023-05-13T17:04:05.825Z,80.17
2023-05-13T17:06:38.912Z,79.85
2023-05-13T17:09:09.356Z,79.64
2023-05-13T17:11:40.062Z,80.52
2023-05-13T17:14:10.735Z,81.16
2023-05-13T17:16:42.268Z,81.30
2023-05-13T17:19:12.740Z,81.35
2023-05-13T17:21:46.020Z,81.19
2023-05-13T17:24:16.688Z,81.45
2023-05-13T17:26:46.994Z,80.82
2023-05-13T17:29:17.309Z,80.84
2023-05-13T17:31:48.438Z,80.42
2023-05-13T17:34:18.655Z,80.46
2023-05-13T17:36:51.636Z,80.87
2023-05-13T17:39:22.100Z,81.06
2023-05-13T17:41:52.455Z,81.86
2023-05-13T17:44:24.189Z,82.13
2023-05-13T17:46:54.737Z,82.52
2023-05-13T17:49:26.330Z,82.25
2023-05-13T17:51:59.252Z,82.48
2023-05-13T17:54:29.806Z,82.06
2023-05-13T17:57:00.506Z,81.61
2023-05-13T17:59:30.794Z,81.50
2023-05-13T18:02:04.397Z,80.83
2023-05-13T18:04:34.699Z,81.35
2023-05-13T18:07:07.653Z,80.69
2023-05-13T18:09:37.928Z,79.98
2023-05-13T18:12:09.117Z,79.21
2023-05-13T18:14:41.581Z,77.57
2023-05-13T18:17:12.629Z,76.20
2023-05-13T18:19:42.472Z,75.51
2023-05-13T18:22:15.382Z,74.04
2023-05-13T18:24:45.818Z,73.66
2023-05-13T18:27:16.034Z,73.60
2023-05-13T18:29:48.925Z,73.85
2023-05-13T18:32:19.621Z,72.11
2023-05-13T18:34:49.905Z,70.50
2023-05-13T18:37:22.670Z,69.87
2023-05-13T18:39:53.007Z,69.63
2023-05-13T18:42:23.230Z,68.24
2023-05-13T18:44:55.320Z,68.62
2023-05-13T18:47:28.740Z,67.71
2023-05-13T18:49:59.064Z,67.52
2023-05-13T18:52:31.874Z,67.95
2023-05-13T18:55:02.509Z,67.47
2023-05-13T18:57:32.773Z,67.72
2023-05-13T19:00:05.648Z,67.70
2023-05-13T19:02:36.402Z,67.09
2023-05-13T19:05:07.150Z,67.31
2023-05-13T19:07:40.749Z,66.91
2023-05-13T19:10:11.559Z,66.95
2023-05-13T19:12:44.446Z,66.60
2023-05-13T19:15:15.383Z,65.89
2023-05-13T19:17:45.695Z,65.68
2023-05-13T19:20:16.311Z,65.19
2023-05-13T19:22:49.973Z,65.51
2023-05-13T19:25:22.536Z,65.28
2023-05-13T19:27:53.228Z,65.23
2023-05-13T19:30:24.196Z,65.08
2023-05-13T19:32:54.656Z,64.65
2023-05-13T19:35:25.631Z,64.99
2023-05-13T19:38:03.578Z,64.95
2023-05-13T19:40:34.026Z,64.75
2023-05-13T19:43:04.513Z,64.02
2023-05-13T19:45:35.150Z,64.19
2023-05-13T19:48:05.680Z,64.23
2023-05-13T19:50:36.019Z,64.08
2023-05-13T19:53:08.912Z,63.55
2023-05-13T19:55:39.440Z,63.44
2023-05-13T19:58:10.270Z,63.99
2023-05-13T20:00:40.643Z,63.21
2023-05-13T20:03:11.059Z,63.42
2023-05-13T20:05:45.669Z,63.27
2023-05-13T20:08:20.798Z,63.50
2023-05-13T20:10:51.175Z,63.18
2023-05-13T20:13:22.057Z,63.14
2023-05-13T20:15:52.744Z,63.33
2023-05-13T20:18:23.209Z,62.63
2023-05-13T20:20:53.963Z,62.61
2023-05-13T20:23:29.097Z,62.35
2023-05-13T20:26:00.351Z,61.86
2023-05-13T20:28:30.784Z,61.84
2023-05-13T20:31:04.935Z,62.25
2023-05-13T20:33:37.480Z,61.52
2023-05-13T20:36:07.971Z,61.71
2023-05-13T20:38:41.102Z,61.02
2023-05-13T20:41:11.524Z,61.04
2023-05-13T20:43:41.675Z,60.67
2023-05-13T20:46:17.090Z,61.11
2023-05-13T20:48:48.197Z,60.86
2023-05-13T20:51:18.865Z,61.13
2023-05-13T20:53:51.983Z,60.87
2023-05-13T20:56:22.401Z,61.39
2023-05-13T20:58:56.002Z,61.13
2023-05-13T21:01:26.981Z,61.25
2023-05-13T21:03:58.135Z,60.71
2023-05-13T21:06:28.652Z,61.17
2023-05-13T21:09:01.658Z,61.13
2023-05-13T21:11:32.066Z,61.32
2023-05-13T21:14:02.326Z,61.34
2023-05-13T21:16:33.776Z,60.77
2023-05-13T21:19:04.487Z,61.57
2023-05-13T21:21:35.030Z,61.64
2023-05-13T21:24:08.855Z,61.58
2023-05-13T21:26:41.297Z,61.81
2023-05-13T21:29:12.956Z,61.54
2023-05-13T21:31:43.237Z,62.12
2023-05-13T21:34:14.228Z,62.19
2023-05-13T21:36:44.748Z,61.97
2023-05-13T21:39:17.651Z,62.31
2023-05-13T21:41:49.999Z,61.81
2023-05-13T21:44:20.520Z,62.33
2023-05-13T21:46:51.084Z,62.08
2023-05-13T21:49:21.794Z,62.20
2023-05-13T21:51:52.325Z,62.09
2023-05-13T21:54:28.105Z,62.07
2023-05-13T21:56:59.491Z,62.73
2023-05-13T21:59:29.766Z,62.66
2023-05-13T22:02:00.053Z,62.92
2023-05-13T22:04:30.419Z,63.12
2023-05-13T22:07:00.831Z,63.33
2023-05-13T22:09:33.973Z,63.20
2023-05-13T22:12:04.957Z,63.47
2023-05-13T22:14:34.932Z,63.94
2023-05-13T22:17:09.895Z,64.31
2023-05-13T22:19:40.607Z,64.81
2023-05-13T22:22:11.013Z,65.18
2023-05-13T22:24:46.120Z,66.02
2023-05-13T22:27:16.661Z,66.90
2023-05-13T22:29:47.166Z,68.23
2023-05-13T22:32:17.401Z,68.92
2023-05-13T22:34:47.720Z,69.46
2023-05-13T22:37:17.981Z,70.01
2023-05-13T22:39:51.560Z,70.62
2023-05-13T22:42:23.038Z,71.66
2023-05-13T22:44:53.644Z,72.09
2023-05-13T22:47:24.269Z,72.61
2023-05-13T22:49:54.623Z,73.47
2023-05-13T22:52:25.150Z,73.99
2023-05-13T22:54:58.605Z,74.69
2023-05-13T22:57:30.713Z,75.32
2023-05-13T23:00:01.200Z,75.35
2023-05-13T23:02:31.480Z,75.77
2023-05-13T23:05:01.833Z,76.05
2023-05-13T23:07:31.988Z,76.23
2023-05-13T23:10:04.956Z,76.61
2023-05-13T23:12:35.084Z,77.22
2023-05-13T23:15:05.781Z,76.67
2023-05-13T23:17:36.257Z,77.35
2023-05-13T23:20:06.760Z,76.85
2023-05-13T23:22:36.994Z,77.84
2023-05-13T23:25:11.333Z,77.25
2023-05-13T23:27:42.459Z,77.27
2023-05-13T23:30:13.047Z,78.05
2023-05-13T23:32:43.212Z,79.26
2023-05-13T23:35:13.639Z,79.50
2023-05-13T23:37:44.062Z,80.72
2023-05-13T23:40:19.683Z,81.47
2023-05-13T23:42:49.863Z,82.03
2023-05-13T23:45:20.476Z,82.12
2023-05-13T23:47:50.950Z,83.20
2023-05-13T23:50:22.022Z,83.36
2023-05-13T23:52:53.030Z,83.95
2023-05-13T23:55:26.327Z,84.61
2023-05-13T23:57:58.049Z,84.98
